sensor_id;sensor_type;location;lat;lon;timestamp;pressure;altitude;pressure_sealevel;temperature;humidity
42601;BME280;28229;48.856;9.088;2023-03-14T00:00:57;96323.34;;;9.34;100.00
42601;BME280;28229;48.856;9.088;2023-03-14T00:03:23;96302.63;;;9.38;100.00
42601;BME280;28229;48.856;9.088;2023-03-14T00:05:49;96304.50;;;9.42;100.00
42601;BME280;28229;48.856;9.088;2023-03-14T00:08:16;96341.22;;;9.42;100.00
42601;BME280;28229;48.856;9.088;2023-03-14T00:10:42;96318.66;;;9.41;100.00
42601;BME280;28229;48.856;9.088;2023-03-14T00:13:08;96313.91;;;9.38;100.00
42601;BME280;28229;48.856;9.088;2023-03-14T00:15:34;96309.44;;;9.39;100.00
42601;BME280;28229;48.856;9.088;2023-03-14T00:18:01;96305.50;;;9.36;100.00
42601;BME280;28229;48.856;9.088;2023-03-14T00:20:27;96295.53;;;9.38;100.00
42601;BME280;28229;48.856;9.088;2023-03-14T00:22:53;96305.78;;;9.40;100.00
42601;BME280;28229;48.856;9.088;2023-03-14T00:25:20;96311.03;;;9.40;100.00
42601;BME280;28229;48.856;9.088;2023-03-14T00:27:46;96304.97;;;9.39;100.00
42601;BME280;28229;48.856;9.088;2023-03-14T00:30:13;96301.56;;;9.39;100.00
42601;BME280;28229;48.856;9.088;2023-03-14T00:32:39;96304.72;;;9.41;100.00
42601;BME280;28229;48.856;9.088;2023-03-14T00:35:06;96312.84;;;9.39;100.00
42601;BME280;28229;48.856;9.088;2023-03-14T00:37:32;96310.78;;;9.41;100.00
42601;BME280;28229;48.856;9.088;2023-03-14T00:39:58;96309.50;;;9.44;100.00
42601;BME280;28229;48.856;9.088;2023-03-14T00:42:25;96308.66;;;9.38;100.00
42601;BME280;28229;48.856;9.088;2023-03-14T00:44:51;96311.03;;;9.40;100.00
42601;BME280;28229;48.856;9.088;2023-03-14T00:47:17;96308.72;;;9.43;100.00
42601;BME280;28229;48.856;9.088;2023-03-14T00:49:43;96303.41;;;9.38;100.00
42601;BME280;28229;48.856;9.088;2023-03-14T00:52:09;96304.50;;;9.42;100.00
42601;BME280;28229;48.856;9.088;2023-03-14T00:54:36;96314.69;;;9.39;100.00
42601;BME280;28229;48.856;9.088;2023-03-14T00:57:02;96316.03;;;9.41;100.00
42601;BME280;28229;48.856;9.088;2023-03-14T00:59:29;96316.03;;;9.41;100.00
42601;BME280;28229;48.856;9.088;2023-03-14T01:01:55;96335.69;;;9.39;100.00
42601;BME280;28229;48.856;9.088;2023-03-14T01:04:21;96338.56;;;9.37;100.00
42601;BME280;28229;48.856;9.088;2023-03-14T01:06:48;96333.84;;;9.39;100.00
42601;BME280;28229;48.856;9.088;2023-03-14T01:09:14;96341.00;;;9.44;100.00
42601;BME280;28229;48.856;9.088;2023-03-14T01:11:41;96332.34;;;9.43;100.00
42601;BME280;28229;48.856;9.088;2023-03-14T01:14:08;96343.63;;;9.44;100.00
42601;BME280;28229;48.856;9.088;2023-03-14T01:16:34;96341.22;;;9.42;100.00
42601;BME280;28229;48.856;9.088;2023-03-14T01:19:02;96341.47;;;9.41;100.00
42601;BME280;28229;48.856;9.088;2023-03-14T01:21:31;96320.28;;;9.47;100.00
42601;BME280;28229;48.856;9.088;2023-03-14T01:23:59;96323.41;;;9.44;100.00
42601;BME280;28229;48.856;9.088;2023-03-14T01:26:27;96308.19;;;9.46;100.00
42601;BME280;28229;48.856;9.088;2023-03-14T01:28:56;96301.38;;;9.45;100.00
42601;BME280;28229;48.856;9.088;2023-03-14T01:31:23;96291.41;;;9.47;100.00
42601;BME280;28229;48.856;9.088;2023-03-14T01:33:50;96287.75;;;9.48;99.67
42601;BME280;28229;48.856;9.088;2023-03-14T01:36:16;96281.97;;;9.51;98.60
42601;BME280;28229;48.856;9.088;2023-03-14T01:38:44;96263.59;;;9.51;98.92
42601;BME280;28229;48.856;9.088;2023-03-14T01:41:16;96265.44;;;9.51;99.03
42601;BME280;28229;48.856;9.088;2023-03-14T01:43:44;96242.59;;;9.51;98.18
42601;BME280;28229;48.856;9.088;2023-03-14T01:48:50;96217.41;;;9.50;97.76
42601;BME280;28229;48.856;9.088;2023-03-14T01:51:27;96223.44;;;9.51;96.64
42601;BME280;28229;48.856;9.088;2023-03-14T01:54:02;96236.28;;;9.47;96.96
42601;BME280;28229;48.856;9.088;2023-03-14T01:56:31;96237.59;;;9.45;97.19
42601;BME280;28229;48.856;9.088;2023-03-14T01:58:58;96231.00;;;9.42;97.68
42601;BME280;28229;48.856;9.088;2023-03-14T02:01:26;96227.09;;;9.50;96.63
42601;BME280;28229;48.856;9.088;2023-03-14T02:03:55;96230.22;;;9.42;96.65
42601;BME280;28229;48.856;9.088;2023-03-14T02:06:28;96235.47;;;9.42;96.14
42601;BME280;28229;48.856;9.088;2023-03-14T02:09:00;96227.34;;;9.43;94.37
42601;BME280;28229;48.856;9.088;2023-03-14T02:11:30;96216.84;;;9.43;93.36
42601;BME280;28229;48.856;9.088;2023-03-14T02:14:03;96220.78;;;9.46;91.83
42601;BME280;28229;48.856;9.088;2023-03-14T02:16:56;96218.41;;;9.44;91.79
42601;BME280;28229;48.856;9.088;2023-03-14T02:22:33;96208.97;;;9.43;90.02
42601;BME280;28229;48.856;9.088;2023-03-14T02:25:39;96206.06;;;9.40;90.83
42601;BME280;28229;48.856;9.088;2023-03-14T02:28:08;96182.69;;;9.38;89.35
42601;BME280;28229;48.856;9.088;2023-03-14T02:30:35;96168.50;;;9.39;89.33
42601;BME280;28229;48.856;9.088;2023-03-14T02:33:05;96168.00;;;9.42;88.42
42601;BME280;28229;48.856;9.088;2023-03-14T02:35:52;96174.81;;;9.38;88.76
42601;BME280;28229;48.856;9.088;2023-03-14T02:38:24;96186.88;;;9.34;89.88
42601;BME280;28229;48.856;9.088;2023-03-14T02:40:53;96179.00;;;9.34;89.93
42601;BME280;28229;48.856;9.088;2023-03-14T02:43:19;96181.06;;;9.32;89.75
42601;BME280;28229;48.856;9.088;2023-03-14T02:45:52;96175.28;;;9.30;89.70
42601;BME280;28229;48.856;9.088;2023-03-14T02:48:25;96189.16;;;9.25;90.40
42601;BME280;28229;48.856;9.088;2023-03-14T02:50:58;96172.66;;;9.30;89.66
42601;BME280;28229;48.856;9.088;2023-03-14T02:53:29;96188.88;;;9.27;90.61
42601;BME280;28229;48.856;9.088;2023-03-14T02:55:59;96164.97;;;9.18;90.51
42601;BME280;28229;48.856;9.088;2023-03-14T02:58:27;96157.88;;;9.19;91.18
42601;BME280;28229;48.856;9.088;2023-03-14T03:01:00;96159.19;;;9.21;90.71
42601;BME280;28229;48.856;9.088;2023-03-14T03:03:26;96150.00;;;9.19;90.89
42601;BME280;28229;48.856;9.088;2023-03-14T03:05:54;96145.00;;;9.17;90.78
42601;BME280;28229;48.856;9.088;2023-03-14T03:08:24;96137.13;;;9.17;90.50
42601;BME280;28229;48.856;9.088;2023-03-14T03:10:52;96143.69;;;9.14;90.71
42601;BME280;28229;48.856;9.088;2023-03-14T03:13:19;96123.75;;;9.13;90.33
42601;BME280;28229;48.856;9.088;2023-03-14T03:15:49;96121.59;;;9.10;89.56
42601;BME280;28229;48.856;9.088;2023-03-14T03:18:16;96109.59;;;9.14;89.69
42601;BME280;28229;48.856;9.088;2023-03-14T03:20:42;96107.47;;;9.11;88.63
42601;BME280;28229;48.856;9.088;2023-03-14T03:23:09;96111.16;;;9.15;87.86
42601;BME280;28229;48.856;9.088;2023-03-14T03:25:38;96113.00;;;9.15;88.26
42601;BME280;28229;48.856;9.088;2023-03-14T03:28:05;96114.28;;;9.12;88.05
42601;BME280;28229;48.856;9.088;2023-03-14T03:30:39;96113.25;;;9.13;87.67
42601;BME280;28229;48.856;9.088;2023-03-14T03:33:05;96110.09;;;9.11;87.89
42601;BME280;28229;48.856;9.088;2023-03-14T03:35:31;96112.19;;;9.09;87.68
42601;BME280;28229;48.856;9.088;2023-03-14T03:37:58;96102.97;;;9.07;87.46
42601;BME280;28229;48.856;9.088;2023-03-14T03:40:24;96101.94;;;9.08;87.16
42601;BME280;28229;48.856;9.088;2023-03-14T03:42:51;96091.69;;;9.06;87.24
42601;BME280;28229;48.856;9.088;2023-03-14T03:45:17;96098.00;;;9.10;86.52
42601;BME280;28229;48.856;9.088;2023-03-14T03:47:50;96088.28;;;9.06;86.28
42601;BME280;28229;48.856;9.088;2023-03-14T03:50:17;96083.28;;;9.04;86.60
42601;BME280;28229;48.856;9.088;2023-03-14T03:52:43;96094.81;;;9.03;86.43
42601;BME280;28229;48.856;9.088;2023-03-14T03:55:09;96083.25;;;8.99;86.50
42601;BME280;28229;48.856;9.088;2023-03-14T03:57:35;96081.63;;;8.93;85.98
42601;BME280;28229;48.856;9.088;2023-03-14T04:00:03;96077.47;;;8.97;85.65
42601;BME280;28229;48.856;9.088;2023-03-14T04:02:40;96088.41;;;8.89;86.03
42601;BME280;28229;48.856;9.088;2023-03-14T04:05:08;96086.03;;;8.87;85.83
42601;BME280;28229;48.856;9.088;2023-03-14T04:07:35;96079.97;;;8.82;85.92
42601;BME280;28229;48.856;9.088;2023-03-14T04:10:02;96072.69;;;8.89;84.89
42601;BME280;28229;48.856;9.088;2023-03-14T04:12:38;96070.56;;;8.86;84.76
42601;BME280;28229;48.856;9.088;2023-03-14T04:15:09;96072.63;;;8.84;84.20
42601;BME280;28229;48.856;9.088;2023-03-14T04:17:37;96072.59;;;8.79;84.63
42601;BME280;28229;48.856;9.088;2023-03-14T04:20:03;96067.09;;;8.80;84.48
42601;BME280;28229;48.856;9.088;2023-03-14T04:22:36;96076.81;;;8.80;84.16
42601;BME280;28229;48.856;9.088;2023-03-14T04:25:02;96074.44;;;8.78;83.50
42601;BME280;28229;48.856;9.088;2023-03-14T04:27:31;96066.03;;;8.76;83.12
42601;BME280;28229;48.856;9.088;2023-03-14T04:29:59;96071.03;;;8.77;83.11
42601;BME280;28229;48.856;9.088;2023-03-14T04:32:47;96063.41;;;8.76;82.43
42601;BME280;28229;48.856;9.088;2023-03-14T04:35:14;96067.84;;;8.70;83.17
42601;BME280;28229;48.856;9.088;2023-03-14T04:37:40;96065.22;;;8.70;81.85
42601;BME280;28229;48.856;9.088;2023-03-14T04:40:10;96066.78;;;8.71;81.92
42601;BME280;28229;48.856;9.088;2023-03-14T04:42:37;96060.50;;;8.72;81.26
42601;BME280;28229;48.856;9.088;2023-03-14T04:45:04;96046.38;;;8.73;81.58
42601;BME280;28229;48.856;9.088;2023-03-14T04:47:32;96032.69;;;8.71;81.56
42601;BME280;28229;48.856;9.088;2023-03-14T04:49:59;96032.69;;;8.71;81.64
42601;BME280;28229;48.856;9.088;2023-03-14T04:52:26;96038.72;;;8.67;81.83
42601;BME280;28229;48.856;9.088;2023-03-14T04:54:52;96037.38;;;8.64;81.17
42601;BME280;28229;48.856;9.088;2023-03-14T04:57:21;96037.38;;;8.64;81.21
42601;BME280;28229;48.856;9.088;2023-03-14T04:59:48;96024.81;;;8.66;81.27
42601;BME280;28229;48.856;9.088;2023-03-14T05:02:34;96036.63;;;8.69;80.71
42601;BME280;28229;48.856;9.088;2023-03-14T05:05:27;96041.34;;;8.67;80.92
42601;BME280;28229;48.856;9.088;2023-03-14T05:08:11;96023.53;;;8.69;80.39
42601;BME280;28229;48.856;9.088;2023-03-14T05:10:58;96017.69;;;8.62;81.33
42601;BME280;28229;48.856;9.088;2023-03-14T05:13:36;96015.88;;;8.62;80.94
42601;BME280;28229;48.856;9.088;2023-03-14T05:16:21;96018.47;;;8.62;80.92
42601;BME280;28229;48.856;9.088;2023-03-14T05:19:06;96023.97;;;8.61;80.63
42601;BME280;28229;48.856;9.088;2023-03-14T05:22:04;96023.97;;;8.61;80.77
42601;BME280;28229;48.856;9.088;2023-03-14T05:25:00;96012.13;;;8.53;81.71
42601;BME280;28229;48.856;9.088;2023-03-14T05:27:49;96015.53;;;8.53;81.69
42601;BME280;28229;48.856;9.088;2023-03-14T05:30:45;96004.84;;;8.60;80.79
42601;BME280;28229;48.856;9.088;2023-03-14T05:33:23;96000.09;;;8.57;80.75
42601;BME280;28229;48.856;9.088;2023-03-14T05:36:10;95998.53;;;8.56;80.72
42601;BME280;28229;48.856;9.088;2023-03-14T05:39:03;95994.34;;;8.60;80.48
42601;BME280;28229;48.856;9.088;2023-03-14T05:41:43;95998.53;;;8.56;80.75
42601;BME280;28229;48.856;9.088;2023-03-14T05:44:39;95996.97;;;8.60;80.07
42601;BME280;28229;48.856;9.088;2023-03-14T05:47:22;96005.38;;;8.62;80.49
42601;BME280;28229;48.856;9.088;2023-03-14T05:50:00;96000.63;;;8.59;80.80
42601;BME280;28229;48.856;9.088;2023-03-14T05:52:47;96001.94;;;8.56;80.58
42601;BME280;28229;48.856;9.088;2023-03-14T05:55:53;96015.81;;;8.57;80.59
42601;BME280;28229;48.856;9.088;2023-03-14T05:58:41;96006.94;;;8.58;80.55
42601;BME280;28229;48.856;9.088;2023-03-14T06:01:19;96004.31;;;8.58;80.57
42601;BME280;28229;48.856;9.088;2023-03-14T06:04:08;96011.13;;;8.59;80.64
42601;BME280;28229;48.856;9.088;2023-03-14T06:06:35;96006.69;;;8.60;80.27
42601;BME280;28229;48.856;9.088;2023-03-14T06:09:02;96007.72;;;8.58;80.72
42601;BME280;28229;48.856;9.088;2023-03-14T06:11:31;96001.66;;;8.53;80.67
42601;BME280;28229;48.856;9.088;2023-03-14T06:13:57;96008.78;;;8.63;80.23
42601;BME280;28229;48.856;9.088;2023-03-14T06:16:24;96013.25;;;8.62;80.21
42601;BME280;28229;48.856;9.088;2023-03-14T06:18:53;96008.47;;;8.54;80.92
42601;BME280;28229;48.856;9.088;2023-03-14T06:21:23;96008.22;;;8.55;81.33
42601;BME280;28229;48.856;9.088;2023-03-14T06:23:49;96000.13;;;8.62;80.05
42601;BME280;28229;48.856;9.088;2023-03-14T06:26:16;96004.06;;;8.60;80.18
42601;BME280;28229;48.856;9.088;2023-03-14T06:28:43;96008.53;;;8.64;79.90
42601;BME280;28229;48.856;9.088;2023-03-14T06:31:09;96004.38;;;8.68;79.16
42601;BME280;28229;48.856;9.088;2023-03-14T06:33:44;95999.16;;;8.68;79.96
42601;BME280;28229;48.856;9.088;2023-03-14T06:36:11;96001.75;;;8.68;79.19
42601;BME280;28229;48.856;9.088;2023-03-14T06:38:40;96004.38;;;8.68;79.21
42601;BME280;28229;48.856;9.088;2023-03-14T06:41:07;95991.84;;;8.75;81.20
42601;BME280;28229;48.856;9.088;2023-03-14T06:43:38;95983.47;;;8.79;79.00
42601;BME280;28229;48.856;9.088;2023-03-14T06:46:06;95986.63;;;8.81;78.91
42601;BME280;28229;48.856;9.088;2023-03-14T06:48:34;95987.22;;;8.93;78.38
42601;BME280;28229;48.856;9.088;2023-03-14T06:51:02;95988.50;;;8.90;77.83
42601;BME280;28229;48.856;9.088;2023-03-14T06:53:28;95992.22;;;9.00;77.23
42601;BME280;28229;48.856;9.088;2023-03-14T06:55:57;95998.84;;;9.07;76.81
42601;BME280;28229;48.856;9.088;2023-03-14T06:58:26;95997.28;;;9.11;77.13
42601;BME280;28229;48.856;9.088;2023-03-14T07:00:53;95996.25;;;9.18;76.86
42601;BME280;28229;48.856;9.088;2023-03-14T07:03:23;95991.03;;;9.23;75.95
42601;BME280;28229;48.856;9.088;2023-03-14T07:05:53;95990.28;;;9.27;75.27
42601;BME280;28229;48.856;9.088;2023-03-14T07:08:19;95999.47;;;9.35;75.78
42601;BME280;28229;48.856;9.088;2023-03-14T07:10:45;96004.00;;;9.45;75.14
42601;BME280;28229;48.856;9.088;2023-03-14T07:13:12;96004.81;;;9.56;74.61
42601;BME280;28229;48.856;9.088;2023-03-14T07:15:51;96011.66;;;9.67;74.88
42601;BME280;28229;48.856;9.088;2023-03-14T07:18:17;96009.59;;;9.74;74.07
42601;BME280;28229;48.856;9.088;2023-03-14T07:20:45;96013.28;;;9.83;74.73
42601;BME280;28229;48.856;9.088;2023-03-14T07:23:13;96012.53;;;9.93;73.55
42601;BME280;28229;48.856;9.088;2023-03-14T07:25:51;96016.47;;;10.01;74.42
42601;BME280;28229;48.856;9.088;2023-03-14T07:28:19;96018.88;;;10.13;73.97
42601;BME280;28229;48.856;9.088;2023-03-14T07:30:47;96016.78;;;10.20;74.00
42601;BME280;28229;48.856;9.088;2023-03-14T07:33:22;96022.88;;;10.36;74.11
42601;BME280;28229;48.856;9.088;2023-03-14T07:35:48;96023.66;;;10.46;72.95
42601;BME280;28229;48.856;9.088;2023-03-14T07:38:15;96024.94;;;10.54;72.33
42601;BME280;28229;48.856;9.088;2023-03-14T07:41:03;96020.22;;;10.61;72.18
42601;BME280;28229;48.856;9.088;2023-03-14T07:43:33;96016.28;;;10.59;71.26
42601;BME280;28229;48.856;9.088;2023-03-14T07:46:00;96019.16;;;10.67;72.16
42601;BME280;28229;48.856;9.088;2023-03-14T07:48:26;96023.38;;;10.74;71.20
42601;BME280;28229;48.856;9.088;2023-03-14T07:50:54;96018.59;;;10.96;72.23
42601;BME280;28229;48.856;9.088;2023-03-14T07:53:21;96019.09;;;11.09;70.89
42601;BME280;28229;48.856;9.088;2023-03-14T07:55:52;96016.44;;;11.09;69.57
42601;BME280;28229;48.856;9.088;2023-03-14T07:58:19;96013.78;;;11.19;69.77
42601;BME280;28229;48.856;9.088;2023-03-14T08:00:45;96012.75;;;11.20;68.67
42601;BME280;28229;48.856;9.088;2023-03-14T08:03:11;96011.66;;;11.31;68.15
42601;BME280;28229;48.856;9.088;2023-03-14T08:05:38;96010.03;;;11.46;68.85
42601;BME280;28229;48.856;9.088;2023-03-14T08:08:05;96017.59;;;11.62;68.87
42601;BME280;28229;48.856;9.088;2023-03-14T08:10:32;96000.94;;;11.72;65.27
42601;BME280;28229;48.856;9.088;2023-03-14T08:12:59;96006.75;;;11.69;65.19
42601;BME280;28229;48.856;9.088;2023-03-14T08:15:29;96008.28;;;11.80;66.00
42601;BME280;28229;48.856;9.088;2023-03-14T08:17:55;95999.78;;;11.89;64.45
42601;BME280;28229;48.856;9.088;2023-03-14T08:20:24;95997.16;;;11.94;65.36
42601;BME280;28229;48.856;9.088;2023-03-14T08:22:51;96002.78;;;11.77;63.82
42601;BME280;28229;48.856;9.088;2023-03-14T08:25:18;96004.06;;;11.79;63.07
42601;BME280;28229;48.856;9.088;2023-03-14T08:27:44;95998.25;;;11.93;64.50
42601;BME280;28229;48.856;9.088;2023-03-14T08:30:12;95989.72;;;12.06;64.17
42601;BME280;28229;48.856;9.088;2023-03-14T08:32:39;95995.09;;;11.86;62.41
42601;BME280;28229;48.856;9.088;2023-03-14T08:35:06;96007.69;;;11.94;64.05
42601;BME280;28229;48.856;9.088;2023-03-14T08:37:33;95995.00;;;12.01;63.37
42601;BME280;28229;48.856;9.088;2023-03-14T08:39:59;96000.28;;;12.01;63.71
42601;BME280;28229;48.856;9.088;2023-03-14T08:42:26;96000.13;;;11.82;63.10
42601;BME280;28229;48.856;9.088;2023-03-14T08:44:52;96004.66;;;11.71;62.98
42601;BME280;28229;48.856;9.088;2023-03-14T08:47:19;95987.38;;;11.50;63.18
42601;BME280;28229;48.856;9.088;2023-03-14T08:49:45;96015.31;;;11.40;64.65
42601;BME280;28229;48.856;9.088;2023-03-14T08:52:11;96016.88;;;11.41;64.93
42601;BME280;28229;48.856;9.088;2023-03-14T08:54:37;96025.84;;;11.40;65.52
42601;BME280;28229;48.856;9.088;2023-03-14T08:57:03;96019.53;;;11.41;66.28
42601;BME280;28229;48.856;9.088;2023-03-14T08:59:29;96029.53;;;11.39;65.58
42601;BME280;28229;48.856;9.088;2023-03-14T09:01:56;96033.22;;;11.33;66.12
42601;BME280;28229;48.856;9.088;2023-03-14T09:04:22;96041.13;;;11.33;66.32
42601;BME280;28229;48.856;9.088;2023-03-14T09:06:48;96040.31;;;11.43;65.25
42601;BME280;28229;48.856;9.088;2023-03-14T09:09:14;96045.84;;;11.47;66.18
42601;BME280;28229;48.856;9.088;2023-03-14T09:11:42;96062.41;;;11.47;68.43
42601;BME280;28229;48.856;9.088;2023-03-14T09:14:08;96062.69;;;11.35;68.21
42601;BME280;28229;48.856;9.088;2023-03-14T09:16:35;96070.41;;;11.11;68.20
42601;BME280;28229;48.856;9.088;2023-03-14T09:19:01;96076.47;;;11.01;68.14
42601;BME280;28229;48.856;9.088;2023-03-14T09:21:27;96080.16;;;10.90;68.61
42601;BME280;28229;48.856;9.088;2023-03-14T09:23:53;96088.31;;;10.83;71.31
42601;BME280;28229;48.856;9.088;2023-03-14T09:26:20;96085.97;;;10.72;71.55
42601;BME280;28229;48.856;9.088;2023-03-14T09:28:46;96093.84;;;10.61;71.74
42601;BME280;28229;48.856;9.088;2023-03-14T09:31:12;96100.66;;;10.42;72.02
42601;BME280;28229;48.856;9.088;2023-03-14T09:33:39;96091.19;;;10.46;73.09
42601;BME280;28229;48.856;9.088;2023-03-14T09:36:06;96100.13;;;10.40;73.56
42601;BME280;28229;48.856;9.088;2023-03-14T09:38:34;96108.53;;;10.37;73.82
42601;BME280;28229;48.856;9.088;2023-03-14T09:41:03;96103.81;;;10.44;74.74
42601;BME280;28229;48.856;9.088;2023-03-14T09:43:31;96093.81;;;10.46;73.54
42601;BME280;28229;48.856;9.088;2023-03-14T09:46:01;96095.94;;;10.49;74.22
42601;BME280;28229;48.856;9.088;2023-03-14T09:48:31;96101.72;;;10.61;73.59
42601;BME280;28229;48.856;9.088;2023-03-14T09:51:00;96094.88;;;10.65;73.01
42601;BME280;28229;48.856;9.088;2023-03-14T09:53:44;96097.00;;;10.58;72.16
42601;BME280;28229;48.856;9.088;2023-03-14T09:56:24;96093.31;;;10.85;73.15
42601;BME280;28229;48.856;9.088;2023-03-14T09:58:55;96086.97;;;11.01;71.43
42601;BME280;28229;48.856;9.088;2023-03-14T10:01:27;96098.28;;;11.22;71.58
42601;BME280;28229;48.856;9.088;2023-03-14T10:03:56;96094.00;;;11.47;71.70
42601;BME280;28229;48.856;9.088;2023-03-14T10:06:26;96090.53;;;11.62;68.21
42601;BME280;28229;48.856;9.088;2023-03-14T10:08:54;96076.56;;;11.67;67.54
42601;BME280;28229;48.856;9.088;2023-03-14T10:11:20;96072.81;;;11.83;68.29
42601;BME280;28229;48.856;9.088;2023-03-14T10:14:02;96082.22;;;12.05;67.32
42601;BME280;28229;48.856;9.088;2023-03-14T10:16:32;96068.69;;;12.22;65.13
42601;BME280;28229;48.856;9.088;2023-03-14T10:19:03;96073.38;;;12.30;64.92
42601;BME280;28229;48.856;9.088;2023-03-14T10:21:39;96074.63;;;12.43;63.56
42601;BME280;28229;48.856;9.088;2023-03-14T10:24:19;96080.91;;;12.47;63.84
42601;BME280;28229;48.856;9.088;2023-03-14T10:26:52;96062.66;;;12.55;64.66
42601;BME280;28229;48.856;9.088;2023-03-14T10:29:19;96063.53;;;12.80;65.89
42601;BME280;28229;48.856;9.088;2023-03-14T10:31:52;96072.59;;;12.64;64.09
42601;BME280;28229;48.856;9.088;2023-03-14T10:34:28;96056.78;;;12.64;64.89
42601;BME280;28229;48.856;9.088;2023-03-14T10:37:04;96057.00;;;12.33;64.65
42601;BME280;28229;48.856;9.088;2023-03-14T10:39:45;96062.03;;;12.29;64.74
42601;BME280;28229;48.856;9.088;2023-03-14T10:42:17;96072.72;;;12.53;65.89
42601;BME280;28229;48.856;9.088;2023-03-14T10:44:46;96060.97;;;12.70;64.51
42601;BME280;28229;48.856;9.088;2023-03-14T10:47:19;96077.13;;;12.58;63.32
42601;BME280;28229;48.856;9.088;2023-03-14T10:49:47;96077.03;;;12.39;64.26
42601;BME280;28229;48.856;9.088;2023-03-14T10:54:40;96075.63;;;12.07;64.32
42601;BME280;28229;48.856;9.088;2023-03-14T10:57:06;96098.69;;;11.71;66.14
42601;BME280;28229;48.856;9.088;2023-03-14T10:59:36;96095.28;;;11.65;66.55
42601;BME280;28229;48.856;9.088;2023-03-14T11:04:56;96111.16;;;11.29;72.17
42601;BME280;28229;48.856;9.088;2023-03-14T11:07:44;96111.19;;;11.14;72.84
42601;BME280;28229;48.856;9.088;2023-03-14T11:10:23;96109.38;;;10.94;75.19
42601;BME280;28229;48.856;9.088;2023-03-14T11:13:00;96119.63;;;10.80;76.81
42601;BME280;28229;48.856;9.088;2023-03-14T11:23:43;96116.94;;;10.39;80.61
42601;BME280;28229;48.856;9.088;2023-03-14T11:26:33;96122.19;;;10.34;82.57
42601;BME280;28229;48.856;9.088;2023-03-14T11:29:20;96115.81;;;10.09;81.55
42601;BME280;28229;48.856;9.088;2023-03-14T11:31:48;96120.78;;;10.05;84.29
42601;BME280;28229;48.856;9.088;2023-03-14T11:34:19;96118.69;;;10.02;85.11
42601;BME280;28229;48.856;9.088;2023-03-14T11:37:05;96124.72;;;10.03;84.39
42601;BME280;28229;48.856;9.088;2023-03-14T11:39:38;96122.38;;;10.12;84.34
42601;BME280;28229;48.856;9.088;2023-03-14T11:42:25;96121.06;;;10.14;84.36
42601;BME280;28229;48.856;9.088;2023-03-14T11:44:54;96128.69;;;10.16;82.23
42601;BME280;28229;48.856;9.088;2023-03-14T11:47:30;96141.56;;;10.17;83.86
42601;BME280;28229;48.856;9.088;2023-03-14T11:50:02;96146.03;;;10.12;82.85
42601;BME280;28229;48.856;9.088;2023-03-14T11:52:33;96146.22;;;10.00;84.24
42601;BME280;28229;48.856;9.088;2023-03-14T11:57:31;96159.59;;;9.88;83.02
42601;BME280;28229;48.856;9.088;2023-03-14T12:02:53;96169.25;;;9.72;87.01
42601;BME280;28229;48.856;9.088;2023-03-14T12:08:42;96193.53;;;10.00;85.95
42601;BME280;28229;48.856;9.088;2023-03-14T12:13:40;96203.56;;;10.08;86.41
42601;BME280;28229;48.856;9.088;2023-03-14T12:18:50;96217.16;;;10.00;85.86
42601;BME280;28229;48.856;9.088;2023-03-14T12:21:18;96220.31;;;9.97;85.97
42601;BME280;28229;48.856;9.088;2023-03-14T12:23:48;96243.97;;;9.97;88.05
42601;BME280;28229;48.856;9.088;2023-03-14T12:26:21;96262.75;;;9.78;82.83
42601;BME280;28229;48.856;9.088;2023-03-14T12:29:16;96274.78;;;9.37;80.90
42601;BME280;28229;48.856;9.088;2023-03-14T12:31:45;96293.22;;;9.14;81.25
42601;BME280;28229;48.856;9.088;2023-03-14T12:40:03;96326.09;;;8.51;76.11
42601;BME280;28229;48.856;9.088;2023-03-14T12:42:08;96334.56;;;8.58;74.38
42601;BME280;28229;48.856;9.088;2023-03-14T12:49:46;96348.22;;;9.04;67.74
42601;BME280;28229;48.856;9.088;2023-03-14T12:52:36;96353.75;;;9.35;65.84
42601;BME280;28229;48.856;9.088;2023-03-14T12:55:12;96369.44;;;9.84;64.62
42601;BME280;28229;48.856;9.088;2023-03-14T12:57:59;96366.91;;;9.95;61.11
42601;BME280;28229;48.856;9.088;2023-03-14T13:00:32;96378.06;;;10.17;61.99
42601;BME280;28229;48.856;9.088;2023-03-14T13:03:15;96381.81;;;10.26;57.01
42601;BME280;28229;48.856;9.088;2023-03-14T13:05:55;96377.09;;;10.23;54.98
42601;BME280;28229;48.856;9.088;2023-03-14T13:08:45;96402.34;;;10.29;55.96
42601;BME280;28229;48.856;9.088;2023-03-14T13:11:16;96428.22;;;10.43;56.52
42601;BME280;28229;48.856;9.088;2023-03-14T13:13:56;96412.19;;;10.12;52.76
42601;BME280;28229;48.856;9.088;2023-03-14T13:16:23;96454.72;;;10.04;54.13
42601;BME280;28229;48.856;9.088;2023-03-14T13:19:00;96440.78;;;9.76;53.39
42601;BME280;28229;48.856;9.088;2023-03-14T13:21:35;96472.66;;;9.58;52.92
42601;BME280;28229;48.856;9.088;2023-03-14T13:24:07;96457.25;;;9.44;51.01
42601;BME280;28229;48.856;9.088;2023-03-14T13:26:44;96472.13;;;9.11;49.67
42601;BME280;28229;48.856;9.088;2023-03-14T13:29:16;96487.56;;;9.08;51.52
42601;BME280;28229;48.856;9.088;2023-03-14T13:31:44;96485.25;;;8.94;50.58
42601;BME280;28229;48.856;9.088;2023-03-14T13:34:11;96479.16;;;8.89;51.07
42601;BME280;28229;48.856;9.088;2023-03-14T13:36:38;96485.53;;;8.76;50.33
42601;BME280;28229;48.856;9.088;2023-03-14T13:39:12;96489.94;;;8.70;52.49
42601;BME280;28229;48.856;9.088;2023-03-14T13:41:40;96495.09;;;8.65;50.90
42601;BME280;28229;48.856;9.088;2023-03-14T13:44:16;96508.28;;;8.70;52.60
42601;BME280;28229;48.856;9.088;2023-03-14T13:46:43;96521.53;;;8.81;54.01
42601;BME280;28229;48.856;9.088;2023-03-14T13:49:27;96518.28;;;8.73;53.52
42601;BME280;28229;48.856;9.088;2023-03-14T13:51:54;96532.72;;;8.59;51.74
42601;BME280;28229;48.856;9.088;2023-03-14T13:54:22;96542.03;;;8.50;52.57
42601;BME280;28229;48.856;9.088;2023-03-14T13:56:59;96560.13;;;8.34;50.73
42601;BME280;28229;48.856;9.088;2023-03-14T13:59:27;96574.69;;;8.30;52.36
42601;BME280;28229;48.856;9.088;2023-03-14T14:01:55;96568.91;;;8.28;50.51
42601;BME280;28229;48.856;9.088;2023-03-14T14:04:24;96586.22;;;8.29;51.10
42601;BME280;28229;48.856;9.088;2023-03-14T14:06:59;96617.75;;;8.34;50.86
42601;BME280;28229;48.856;9.088;2023-03-14T14:09:35;96619.16;;;8.25;47.57